Time;durP1;ratioP1;P1;durP2;ratioP2;P2;SDS_P1;SDS_P2;PMS_P1;PMS_P2;Temp;Humidity;BMP_temperature;BMP_pressure;BME280_temperature;BME280_humidity;BME280_pressure;Samples;Min_cycle;Max_cycle;Signal;HPM_P1;HPM_P2
2022/03/17 00:00:56;;;;;;;33.42;20.05;;;12.00;99.90;;;;;;5012902;28;20017;-72
2022/03/17 00:03:21;;;;;;;31.10;19.90;;;12.00;99.90;;;;;;4995139;28;20463;-71
2022/03/17 00:05:47;;;;;;;34.88;19.77;;;12.00;99.90;;;;;;4992146;28;20114;-72
2022/03/17 00:08:13;;;;;;;29.58;19.48;;;12.00;99.90;;;;;;4993513;28;20022;-71
2022/03/17 00:10:39;;;;;;;42.22;21.13;;;12.00;99.90;;;;;;4997159;28;20026;-72
2022/03/17 00:13:05;;;;;;;38.78;20.98;;;12.00;99.90;;;;;;5007755;28;20092;-72
2022/03/17 00:15:30;;;;;;;32.88;20.75;;;12.00;99.90;;;;;;5012526;28;20026;-72
2022/03/17 00:17:57;;;;;;;36.90;21.27;;;12.00;99.90;;;;;;5012524;28;20053;-72
2022/03/17 00:20:23;;;;;;;38.00;20.33;;;11.90;99.90;;;;;;5012661;28;20026;-72
2022/03/17 00:22:49;;;;;;;40.28;22.70;;;11.90;99.90;;;;;;5012876;28;20036;-72
2022/03/17 00:25:15;;;;;;;38.17;22.25;;;11.90;99.90;;;;;;5007807;28;20126;-72
2022/03/17 00:27:40;;;;;;;40.88;22.25;;;11.90;99.90;;;;;;4992993;28;20050;-72
2022/03/17 00:30:07;;;;;;;37.97;21.42;;;11.90;99.90;;;;;;4992809;28;20026;-72
2022/03/17 00:32:33;;;;;;;40.25;22.98;;;11.90;99.90;;;;;;5002072;28;20044;-72
2022/03/17 00:37:43;;;;;;;37.88;22.50;;;11.90;99.90;;;;;;4992720;28;20045;-72
2022/03/17 00:40:09;;;;;;;41.05;22.35;;;11.90;99.90;;;;;;4995851;28;20034;-72
2022/03/17 00:42:36;;;;;;;34.85;22.38;;;11.80;99.90;;;;;;5012160;28;20022;-72
2022/03/17 00:45:02;;;;;;;43.00;24.73;;;11.80;99.90;;;;;;5011763;28;20049;-72
2022/03/17 00:47:28;;;;;;;44.35;25.30;;;11.80;99.90;;;;;;5010951;28;20049;-72
2022/03/17 00:49:53;;;;;;;40.80;24.85;;;11.80;99.90;;;;;;5003446;28;20042;-72
2022/03/17 00:52:20;;;;;;;46.63;25.73;;;11.80;99.90;;;;;;4993038;28;20029;-72
2022/03/17 00:54:46;;;;;;;45.38;26.58;;;11.80;99.90;;;;;;4996939;28;20029;-72
2022/03/17 00:57:12;;;;;;;45.97;26.00;;;11.80;99.90;;;;;;5012146;28;20034;-72
2022/03/17 00:59:38;;;;;;;50.45;29.95;;;11.80;99.90;;;;;;5010555;28;20458;-72
2022/03/17 01:02:05;;;;;;;53.70;29.30;;;11.80;99.90;;;;;;4996687;28;20049;-72
2022/03/17 01:04:31;;;;;;;57.65;30.55;;;11.80;99.90;;;;;;5007554;28;20114;-72
2022/03/17 01:06:56;;;;;;;55.80;30.50;;;11.80;99.90;;;;;;5004392;28;20121;-72
2022/03/17 01:09:22;;;;;;;56.60;31.05;;;11.70;99.90;;;;;;5012000;28;20098;-72
2022/03/17 01:11:48;;;;;;;61.00;33.72;;;11.70;99.90;;;;;;5014007;28;20022;-72
2022/03/17 01:14:13;;;;;;;60.92;34.88;;;11.70;99.90;;;;;;5006843;28;20050;-72
2022/03/17 01:16:43;;;;;;;67.20;36.53;;;11.70;99.90;;;;;;5005391;28;20057;-72
2022/03/17 01:19:08;;;;;;;65.78;37.17;;;11.70;99.90;;;;;;5000135;28;20054;-72
2022/03/17 01:21:34;;;;;;;67.68;37.33;;;11.70;99.90;;;;;;4994421;28;20026;-72
2022/03/17 01:24:00;;;;;;;69.05;36.63;;;11.70;99.90;;;;;;4994882;28;20027;-72
2022/03/17 01:26:25;;;;;;;65.07;35.97;;;11.70;99.90;;;;;;5009000;28;20042;-72
2022/03/17 01:28:52;;;;;;;72.57;36.83;;;11.70;99.90;;;;;;5007053;28;20455;-72
2022/03/17 01:31:18;;;;;;;70.95;38.72;;;11.70;99.90;;;;;;5002947;28;20315;-72
2022/03/17 01:33:43;;;;;;;71.68;40.67;;;11.70;99.90;;;;;;5010109;28;20037;-72
2022/03/17 01:36:09;;;;;;;74.93;40.90;;;11.60;99.90;;;;;;4995701;28;20038;-72
2022/03/17 01:38:35;;;;;;;60.58;33.95;;;11.60;99.90;;;;;;4983259;28;20029;-72
2022/03/17 01:41:00;;;;;;;51.97;29.65;;;11.60;99.90;;;;;;5002964;28;20074;-72
2022/03/17 01:43:26;;;;;;;42.10;24.75;;;11.50;99.90;;;;;;4993714;28;20045;-72
2022/03/17 01:45:53;;;;;;;39.97;23.27;;;11.50;99.90;;;;;;5011328;28;20022;-72
2022/03/17 01:48:22;;;;;;;36.47;24.40;;;11.40;99.90;;;;;;4995528;28;20029;-72
2022/03/17 01:50:49;;;;;;;37.13;22.38;;;11.30;99.90;;;;;;5013191;28;20089;-72
2022/03/17 01:53:15;;;;;;;34.22;21.55;;;11.20;99.90;;;;;;5004972;28;20034;-72
2022/03/17 01:55:40;;;;;;;34.00;19.40;;;11.00;99.90;;;;;;4975712;28;20386;-72
2022/03/17 01:58:06;;;;;;;26.38;15.15;;;11.00;99.90;;;;;;5003327;28;20466;-70
2022/03/17 02:00:32;;;;;;;20.92;12.13;;;10.90;99.90;;;;;;5002826;28;20105;-70
2022/03/17 02:02:58;;;;;;;18.48;9.23;;;10.70;99.90;;;;;;5008340;28;20054;-73
2022/03/17 02:05:23;;;;;;;17.05;8.95;;;10.50;99.90;;;;;;4978340;28;20037;-73
2022/03/17 02:10:15;;;;;;;16.55;7.40;;;10.10;99.90;;;;;;5013511;28;20033;-72
2022/03/17 02:15:27;;;;;;;18.80;9.02;;;9.80;99.90;;;;;;5011620;28;20124;-72
2022/03/17 02:17:53;;;;;;;18.35;9.25;;;9.70;99.90;;;;;;5015631;28;20053;-72
2022/03/17 02:20:20;;;;;;;25.42;10.00;;;9.50;99.90;;;;;;5014747;28;20030;-72
2022/03/17 02:22:48;;;;;;;17.20;9.40;;;9.40;99.90;;;;;;4999568;28;20133;-72
2022/03/17 02:25:34;;;;;;;21.10;9.63;;;9.40;99.90;;;;;;4996681;28;20038;-72
2022/03/17 02:28:02;;;;;;;19.55;10.25;;;9.30;99.90;;;;;;5010270;28;20042;-73
2022/03/17 02:30:29;;;;;;;15.65;9.50;;;9.30;99.90;;;;;;4981437;28;20100;-74
2022/03/17 02:33:03;;;;;;;21.60;10.27;;;9.20;99.90;;;;;;5002714;28;20014;-72
2022/03/17 02:35:29;;;;;;;26.33;12.13;;;9.20;99.90;;;;;;4996983;28;20109;-72
2022/03/17 02:37:56;;;;;;;28.30;12.55;;;9.20;99.90;;;;;;4994976;28;20038;-72
2022/03/17 02:40:22;;;;;;;26.10;13.68;;;9.20;99.90;;;;;;5010755;28;20029;-72
2022/03/17 02:42:50;;;;;;;19.77;13.23;;;9.20;99.90;;;;;;4982816;28;20034;-72
2022/03/17 02:45:16;;;;;;;27.35;13.85;;;9.10;99.90;;;;;;5015019;28;20022;-72
2022/03/17 02:47:42;;;;;;;30.65;13.63;;;9.10;99.90;;;;;;5018790;28;20406;-72
2022/03/17 02:50:12;;;;;;;27.38;12.02;;;9.10;99.90;;;;;;5019234;28;20025;-72
2022/03/17 02:52:38;;;;;;;23.92;12.35;;;9.00;99.90;;;;;;4996513;28;20042;-72
2022/03/17 02:55:05;;;;;;;32.85;13.38;;;9.00;99.90;;;;;;4998701;28;20053;-72
2022/03/17 02:57:30;;;;;;;26.90;13.48;;;9.00;99.90;;;;;;5010058;28;20037;-73
2022/03/17 02:59:56;;;;;;;30.38;13.50;;;9.00;99.90;;;;;;5012506;28;20033;-72
2022/03/17 03:02:22;;;;;;;29.45;14.30;;;9.00;99.90;;;;;;4989821;28;20037;-73
2022/03/17 03:04:48;;;;;;;26.73;12.70;;;9.00;99.90;;;;;;5004636;28;20062;-72
2022/03/17 03:07:14;;;;;;;31.85;13.18;;;9.00;99.90;;;;;;5012519;28;20050;-72
2022/03/17 03:09:40;;;;;;;33.15;13.70;;;9.00;99.90;;;;;;5003671;28;20366;-73
2022/03/17 03:12:07;;;;;;;29.63;13.68;;;9.00;99.90;;;;;;5017122;28;20465;-72
2022/03/17 03:14:32;;;;;;;29.45;12.43;;;8.90;99.90;;;;;;5015072;28;20026;-73
2022/03/17 03:16:58;;;;;;;33.92;9.95;;;8.90;99.90;;;;;;5003142;28;20038;-72
2022/03/17 03:19:24;;;;;;;34.13;8.02;;;8.90;99.90;;;;;;5009705;28;20109;-73
2022/03/17 03:21:50;;;;;;;28.73;7.55;;;8.90;99.90;;;;;;5014618;28;20055;-72
2022/03/17 03:24:16;;;;;;;32.42;6.57;;;8.80;99.90;;;;;;5004959;28;20030;-73
2022/03/17 03:26:43;;;;;;;31.10;6.35;;;8.70;99.90;;;;;;4998932;28;20034;-72
2022/03/17 03:29:17;;;;;;;31.48;5.40;;;8.70;99.90;;;;;;4996771;28;20077;-72
2022/03/17 03:31:43;;;;;;;28.90;5.07;;;8.70;99.90;;;;;;4996137;28;20046;-73
2022/03/17 03:34:08;;;;;;;31.95;5.70;;;8.60;99.90;;;;;;4999441;28;20057;-72
2022/03/17 03:39:18;;;;;;;17.92;2.92;;;8.70;99.90;;;;;;4996891;28;20069;-72
2022/03/17 03:41:43;;;;;;;23.75;3.58;;;8.70;99.90;;;;;;5015019;28;20042;-73
2022/03/17 03:44:14;;;;;;;26.98;3.47;;;8.60;99.90;;;;;;5014343;28;20026;-73
2022/03/17 03:46:40;;;;;;;23.83;3.47;;;8.60;99.90;;;;;;5014165;28;20070;-73
2022/03/17 03:49:06;;;;;;;22.60;3.22;;;8.60;99.90;;;;;;5014536;28;20445;-72
2022/03/17 03:51:31;;;;;;;19.10;2.80;;;8.50;99.90;;;;;;4995311;28;20022;-73
2022/03/17 03:56:53;;;;;;;20.48;3.08;;;8.50;99.90;;;;;;4994791;28;20061;-72
2022/03/17 03:59:21;;;;;;;25.45;3.38;;;8.50;99.90;;;;;;4994606;28;20109;-73
2022/03/17 04:01:52;;;;;;;17.92;2.65;;;8.50;99.90;;;;;;4999224;28;20049;-70
2022/03/17 04:04:19;;;;;;;17.55;2.83;;;8.50;99.90;;;;;;5012082;28;20414;-73
2022/03/17 04:06:47;;;;;;;26.55;3.17;;;8.50;99.90;;;;;;5002969;28;20109;-73
2022/03/17 04:09:17;;;;;;;24.35;2.85;;;8.50;99.90;;;;;;4993567;28;20106;-71
2022/03/17 04:11:44;;;;;;;20.58;2.55;;;8.50;99.90;;;;;;5013138;28;20041;-71
2022/03/17 04:14:11;;;;;;;19.60;2.60;;;8.40;99.90;;;;;;5007348;28;20129;-71
2022/03/17 04:16:37;;;;;;;21.73;3.10;;;8.40;99.90;;;;;;5008696;28;20385;-71
2022/03/17 04:19:03;;;;;;;16.92;2.33;;;8.50;99.90;;;;;;5012126;28;20103;-70
2022/03/17 04:21:29;;;;;;;16.25;2.53;;;8.40;99.90;;;;;;4993092;28;20066;-70
2022/03/17 04:23:55;;;;;;;15.20;2.00;;;8.40;99.90;;;;;;5008540;28;20029;-70
2022/03/17 04:26:20;;;;;;;13.27;1.98;;;8.40;99.90;;;;;;5003844;28;20092;-71
2022/03/17 04:28:46;;;;;;;13.13;2.10;;;8.40;99.90;;;;;;5008016;28;20024;-71
2022/03/17 04:31:12;;;;;;;11.48;2.05;;;8.40;99.90;;;;;;5010588;28;20032;-71
2022/03/17 04:33:38;;;;;;;9.65;1.60;;;8.40;99.90;;;;;;4993085;28;20458;-73
2022/03/17 04:36:05;;;;;;;10.60;1.80;;;8.30;99.90;;;;;;4992958;28;20035;-73
2022/03/17 04:38:32;;;;;;;13.45;1.73;;;8.30;99.90;;;;;;5003852;28;20037;-72
2022/03/17 04:40:57;;;;;;;10.85;1.90;;;8.40;99.90;;;;;;4993582;28;20034;-73
2022/03/17 04:43:23;;;;;;;10.32;1.90;;;8.30;99.90;;;;;;4992628;28;20551;-73
2022/03/17 04:45:49;;;;;;;11.90;1.80;;;8.30;99.90;;;;;;4992767;28;20022;-72
2022/03/17 04:48:15;;;;;;;14.75;2.17;;;8.30;99.90;;;;;;4992526;28;20039;-71
2022/03/17 04:50:41;;;;;;;13.43;1.88;;;8.30;99.90;;;;;;5003644;28;20033;-71
2022/03/17 04:53:40;;;;;;;13.45;2.30;;;8.30;99.90;;;;;;5006424;28;20049;-71
2022/03/17 04:56:00;;;;;;;12.45;2.30;;;8.30;99.90;;;;;;4990346;28;20108;-70
2022/03/17 04:58:28;;;;;;;12.73;1.80;;;8.30;99.90;;;;;;5006887;28;20030;-71
2022/03/17 05:00:55;;;;;;;15.07;2.30;;;8.30;99.90;;;;;;5000769;28;20093;-71
2022/03/17 05:03:21;;;;;;;17.95;2.13;;;8.30;99.90;;;;;;5001966;28;20026;-70
2022/03/17 05:05:47;;;;;;;12.55;2.28;;;8.30;99.90;;;;;;5008813;28;20014;-70
2022/03/17 05:08:13;;;;;;;17.75;2.30;;;8.30;99.90;;;;;;5011609;28;20038;-70
2022/03/17 05:10:38;;;;;;;17.80;2.50;;;8.30;99.90;;;;;;5011019;28;20446;-70
2022/03/17 05:13:05;;;;;;;11.93;2.42;;;8.20;99.90;;;;;;5003443;28;20740;-70
2022/03/17 05:15:31;;;;;;;19.98;2.40;;;8.20;99.90;;;;;;4998316;28;20338;-70
2022/03/17 05:17:57;;;;;;;20.30;2.40;;;8.20;99.90;;;;;;4997369;28;20061;-70
2022/03/17 05:20:22;;;;;;;17.30;2.00;;;8.20;99.90;;;;;;5002273;28;20031;-70
2022/03/17 05:22:48;;;;;;;12.52;1.77;;;8.20;99.90;;;;;;5005396;28;20068;-70
2022/03/17 05:25:14;;;;;;;15.27;2.00;;;8.20;99.90;;;;;;4991724;28;20031;-70
2022/03/17 05:27:41;;;;;;;15.23;2.58;;;8.20;99.90;;;;;;4992077;28;20455;-71
2022/03/17 05:30:09;;;;;;;14.50;2.08;;;8.20;99.90;;;;;;4992574;28;20038;-71
2022/03/17 05:32:35;;;;;;;14.43;2.05;;;8.20;99.90;;;;;;4997382;28;20030;-70
2022/03/17 05:35:01;;;;;;;12.40;2.40;;;8.20;99.90;;;;;;4991942;28;20042;-71
2022/03/17 05:37:26;;;;;;;27.55;2.78;;;8.20;99.90;;;;;;4994179;28;20398;-70
2022/03/17 05:39:52;;;;;;;14.88;2.17;;;8.20;99.90;;;;;;4979997;28;20029;-70
2022/03/17 05:42:18;;;;;;;22.92;2.55;;;8.10;99.90;;;;;;4997743;28;20057;-70
2022/03/17 05:44:43;;;;;;;19.13;2.90;;;8.10;99.90;;;;;;5002584;28;20442;-70
2022/03/17 05:47:09;;;;;;;20.73;2.97;;;8.10;99.90;;;;;;5002847;28;20029;-70
2022/03/17 05:49:35;;;;;;;21.40;3.05;;;8.10;99.90;;;;;;4999066;28;20057;-70
2022/03/17 05:52:01;;;;;;;27.90;3.25;;;8.10;99.90;;;;;;4997806;28;20054;-70
2022/03/17 05:54:26;;;;;;;18.67;2.53;;;8.10;99.90;;;;;;4975828;28;20014;-70
2022/03/17 05:56:52;;;;;;;15.48;2.58;;;8.10;99.90;;;;;;4995715;28;20076;-70
2022/03/17 05:59:17;;;;;;;23.90;2.95;;;8.10;99.90;;;;;;4991155;28;20038;-71
2022/03/17 06:01:43;;;;;;;13.23;2.30;;;8.10;99.90;;;;;;4998355;28;20024;-70
2022/03/17 06:04:08;;;;;;;20.23;2.60;;;8.20;99.90;;;;;;5003754;28;20498;-71
2022/03/17 06:06:34;;;;;;;23.08;3.47;;;8.20;99.90;;;;;;4999011;28;20030;-70
2022/03/17 06:09:01;;;;;;;15.48;2.72;;;8.20;99.90;;;;;;4996540;28;20096;-70
2022/03/17 06:11:27;;;;;;;17.33;2.50;;;8.20;99.90;;;;;;4992693;28;20030;-70
2022/03/17 06:13:53;;;;;;;13.07;2.80;;;8.20;99.90;;;;;;5005480;28;20113;-70
2022/03/17 06:16:20;;;;;;;18.92;2.45;;;8.20;99.90;;;;;;4998190;28;20582;-71
2022/03/17 06:18:46;;;;;;;17.20;2.63;;;8.20;99.90;;;;;;5005401;28;20063;-71
2022/03/17 06:21:12;;;;;;;17.23;2.20;;;8.20;99.90;;;;;;4989412;28;20042;-71
2022/03/17 06:23:37;;;;;;;14.82;2.13;;;8.20;99.90;;;;;;5003471;28;20014;-72
2022/03/17 06:26:03;;;;;;;17.58;2.45;;;8.30;99.90;;;;;;5006603;28;20146;-72
2022/03/17 06:28:29;;;;;;;18.92;2.30;;;8.30;99.90;;;;;;5004012;28;20018;-72
2022/03/17 06:30:55;;;;;;;19.15;2.30;;;8.30;99.90;;;;;;4999456;28;20414;-72
2022/03/17 06:33:21;;;;;;;20.05;2.47;;;8.30;99.90;;;;;;5004565;28;20037;-72
2022/03/17 06:35:46;;;;;;;18.10;2.35;;;8.30;99.90;;;;;;5010618;28;20105;-73
2022/03/17 06:38:12;;;;;;;16.23;2.65;;;8.30;99.90;;;;;;4991523;28;20038;-72
2022/03/17 06:40:38;;;;;;;26.08;2.78;;;8.30;99.90;;;;;;5000142;28;20022;-72
2022/03/17 06:43:04;;;;;;;15.70;2.30;;;8.30;99.90;;;;;;5010471;28;20029;-72
2022/03/17 06:45:30;;;;;;;20.05;2.70;;;8.30;99.90;;;;;;5003926;28;20087;-72
2022/03/17 06:47:56;;;;;;;23.38;2.65;;;8.30;99.90;;;;;;5005588;28;20030;-73
2022/03/17 06:50:22;;;;;;;16.92;2.67;;;8.30;99.90;;;;;;4975227;28;20120;-72
2022/03/17 06:52:49;;;;;;;24.50;2.92;;;8.30;99.90;;;;;;5002204;28;20018;-73
2022/03/17 06:55:15;;;;;;;19.45;2.50;;;8.30;99.90;;;;;;5003998;28;20022;-72
2022/03/17 06:57:42;;;;;;;18.27;2.60;;;8.30;99.90;;;;;;4993601;28;20490;-72
2022/03/17 07:00:10;;;;;;;18.15;3.67;;;8.30;99.90;;;;;;4989626;28;20124;-72
2022/03/17 07:02:36;;;;;;;13.55;2.35;;;8.30;99.90;;;;;;4989301;28;20034;-73
2022/03/17 07:05:03;;;;;;;18.00;2.55;;;8.30;99.90;;;;;;5000877;28;20041;-73
2022/03/17 07:07:29;;;;;;;20.42;2.58;;;8.40;99.90;;;;;;5003038;28;20319;-73
2022/03/17 07:09:54;;;;;;;19.02;2.58;;;8.40;99.90;;;;;;4989475;28;20133;-72
2022/03/17 07:12:20;;;;;;;18.50;2.10;;;8.40;99.90;;;;;;4992853;28;20073;-73
2022/03/17 07:14:45;;;;;;;16.15;2.15;;;8.30;99.90;;;;;;5007457;28;20040;-73
2022/03/17 07:17:11;;;;;;;15.15;2.03;;;8.30;99.90;;;;;;5006776;28;20103;-73
2022/03/17 07:19:36;;;;;;;11.13;2.03;;;8.30;99.90;;;;;;5004333;28;20076;-73
2022/03/17 07:22:03;;;;;;;13.98;1.88;;;8.30;99.90;;;;;;5008111;28;20022;-72
2022/03/17 07:24:29;;;;;;;14.85;2.08;;;8.30;99.90;;;;;;5008823;28;20022;-72
2022/03/17 07:26:54;;;;;;;17.83;1.95;;;8.30;99.90;;;;;;5010401;28;20048;-73
2022/03/17 07:29:20;;;;;;;12.80;1.90;;;8.30;99.90;;;;;;5011981;28;20025;-73
2022/03/17 07:31:46;;;;;;;12.77;1.88;;;8.30;99.90;;;;;;5012113;28;20501;-73
2022/03/17 07:34:12;;;;;;;9.48;1.90;;;8.30;99.90;;;;;;5011882;28;20104;-73
2022/03/17 07:36:40;;;;;;;17.52;2.00;;;8.40;99.90;;;;;;5012028;28;20109;-72
2022/03/17 07:39:06;;;;;;;15.80;2.05;;;8.30;99.90;;;;;;5012188;28;20021;-73
2022/03/17 07:41:32;;;;;;;17.02;2.63;;;8.30;99.90;;;;;;5011584;28;20104;-73
2022/03/17 07:43:59;;;;;;;17.98;2.28;;;8.40;99.90;;;;;;5009275;28;20029;-72
2022/03/17 07:46:24;;;;;;;16.35;2.25;;;8.40;99.90;;;;;;5007084;28;20470;-73
2022/03/17 07:48:50;;;;;;;15.07;2.20;;;8.40;99.90;;;;;;5010222;28;20022;-73
2022/03/17 07:51:16;;;;;;;12.18;2.38;;;8.40;99.90;;;;;;5011773;28;20044;-72
2022/03/17 07:53:41;;;;;;;11.32;1.83;;;8.40;99.90;;;;;;4997219;28;20049;-73
2022/03/17 07:56:10;;;;;;;12.40;2.05;;;8.40;99.90;;;;;;5010921;28;20336;-72
2022/03/17 07:58:37;;;;;;;11.23;1.90;;;8.40;99.90;;;;;;5012004;28;20382;-72
2022/03/17 08:01:03;;;;;;;9.23;1.75;;;8.30;99.90;;;;;;5007108;28;20026;-73
2022/03/17 08:03:29;;;;;;;8.63;1.60;;;8.30;99.90;;;;;;5004146;28;20366;-72
2022/03/17 08:05:55;;;;;;;6.95;1.60;;;8.30;99.90;;;;;;5004148;28;20014;-72
2022/03/17 08:08:20;;;;;;;8.00;1.73;;;8.30;99.90;;;;;;5003388;28;20101;-72
2022/03/17 08:10:46;;;;;;;10.60;1.80;;;8.30;99.90;;;;;;4997711;28;20021;-72
2022/03/17 08:13:12;;;;;;;8.57;1.55;;;8.30;99.90;;;;;;4994863;28;20026;-72
2022/03/17 08:15:39;;;;;;;15.18;1.70;;;8.40;99.90;;;;;;4998926;28;20390;-73
2022/03/17 08:18:06;;;;;;;7.95;1.70;;;8.40;99.90;;;;;;5007074;28;20049;-72
2022/03/17 08:20:39;;;;;;;10.65;1.92;;;8.40;99.90;;;;;;5004818;28;20137;-72
2022/03/17 08:23:06;;;;;;;9.05;1.75;;;8.50;99.90;;;;;;5001731;28;20073;-72
2022/03/17 08:25:32;;;;;;;9.80;1.42;;;8.60;99.90;;;;;;5003438;28;20054;-72
2022/03/17 08:27:57;;;;;;;8.25;2.22;;;8.70;99.90;;;;;;5011018;28;20148;-72
2022/03/17 08:30:23;;;;;;;9.55;1.77;;;8.70;99.90;;;;;;5009608;28;20061;-72
2022/03/17 08:32:49;;;;;;;11.10;1.90;;;8.90;99.90;;;;;;5010996;28;20041;-72
2022/03/17 08:35:17;;;;;;;5.90;1.60;;;9.10;99.90;;;;;;5010966;28;20037;-72
2022/03/17 08:37:45;;;;;;;12.55;2.45;;;9.20;99.90;;;;;;5010649;28;20509;-72
2022/03/17 08:40:13;;;;;;;12.13;2.10;;;9.30;99.90;;;;;;5011173;28;20029;-72
2022/03/17 08:42:39;;;;;;;9.68;2.03;;;9.30;99.90;;;;;;5010759;28;20026;-72
2022/03/17 08:49:18;;;;;;;13.85;1.80;;;9.30;99.90;;;;;;5011333;28;20052;-72
2022/03/17 08:50:44;;;;;;;6.60;2.03;;;9.30;99.90;;;;;;5011096;28;20504;-72
2022/03/17 08:53:10;;;;;;;7.47;2.10;;;9.40;99.90;;;;;;5010939;28;20029;-72
2022/03/17 08:55:36;;;;;;;12.52;2.22;;;9.50;99.90;;;;;;5010482;28;20026;-72
2022/03/17 08:58:03;;;;;;;9.15;2.17;;;9.60;99.90;;;;;;5010594;28;20096;-72
2022/03/17 09:00:31;;;;;;;8.38;2.05;;;9.60;99.90;;;;;;5010334;28;20405;-72
2022/03/17 09:03:01;;;;;;;15.82;2.65;;;9.60;99.90;;;;;;5010688;28;20017;-72
2022/03/17 09:05:27;;;;;;;5.93;1.95;;;9.70;99.90;;;;;;5010621;28;20413;-72
2022/03/17 09:07:53;;;;;;;9.98;2.08;;;9.80;99.90;;;;;;5010201;28;20051;-72
2022/03/17 09:10:20;;;;;;;12.73;2.65;;;9.90;99.90;;;;;;4992400;28;20125;-73
2022/03/17 09:12:46;;;;;;;8.45;2.70;;;9.90;99.90;;;;;;5010126;28;20398;-72
2022/03/17 09:15:13;;;;;;;11.10;2.38;;;9.90;99.90;;;;;;5009661;28;20027;-72
2022/03/17 09:17:44;;;;;;;11.43;2.40;;;9.90;99.90;;;;;;5010049;28;20073;-72
2022/03/17 09:20:12;;;;;;;10.95;2.70;;;9.80;99.90;;;;;;5010308;28;20080;-73
2022/03/17 09:22:40;;;;;;;10.55;2.28;;;9.90;99.90;;;;;;5009929;28;20029;-72
2022/03/17 09:25:07;;;;;;;6.90;2.13;;;10.00;99.90;;;;;;5009510;28;20474;-72
2022/03/17 09:27:32;;;;;;;11.20;2.60;;;10.00;99.90;;;;;;5009793;28;20026;-72
2022/03/17 09:29:58;;;;;;;9.60;2.25;;;10.00;99.90;;;;;;4991934;28;20117;-72
2022/03/17 09:32:24;;;;;;;12.85;2.53;;;10.10;99.90;;;;;;5009802;28;20399;-72
2022/03/17 09:34:50;;;;;;;11.10;2.45;;;10.10;99.90;;;;;;5009793;28;20087;-73
2022/03/17 09:37:17;;;;;;;13.18;2.85;;;10.10;99.90;;;;;;5009716;28;20022;-72
2022/03/17 09:39:45;;;;;;;10.40;2.50;;;10.20;99.90;;;;;;5010015;28;20053;-72
2022/03/17 09:42:16;;;;;;;13.43;2.63;;;10.30;99.90;;;;;;5009531;28;20029;-72
2022/03/17 09:44:47;;;;;;;8.15;2.55;;;10.30;99.90;;;;;;5009582;28;20129;-72
2022/03/17 09:47:18;;;;;;;9.95;2.30;;;10.40;99.90;;;;;;5009418;28;20030;-72
2022/03/17 09:49:47;;;;;;;8.98;2.75;;;10.30;99.90;;;;;;5009008;28;20026;-73
2022/03/17 09:52:14;;;;;;;12.77;2.40;;;10.40;99.90;;;;;;5009963;28;20386;-72
2022/03/17 09:54:44;;;;;;;12.48;2.55;;;10.40;99.90;;;;;;5009526;28;20091;-71
2022/03/17 09:57:09;;;;;;;8.73;2.47;;;10.30;99.90;;;;;;5009861;28;20112;-72
2022/03/17 09:59:35;;;;;;;11.05;2.38;;;10.30;99.90;;;;;;5009531;28;20555;-72
2022/03/17 10:02:02;;;;;;;10.07;2.72;;;10.30;99.90;;;;;;5008990;28;20033;-72
2022/03/17 10:04:32;;;;;;;10.07;3.10;;;10.30;99.90;;;;;;5009351;28;20037;-72
2022/03/17 10:06:59;;;;;;;11.70;3.20;;;10.40;99.90;;;;;;4992069;28;20030;-72
2022/03/17 10:09:27;;;;;;;10.27;3.38;;;10.50;99.90;;;;;;4994599;28;20113;-72
2022/03/17 10:12:04;;;;;;;10.48;2.70;;;10.60;99.90;;;;;;4989893;28;20030;-72
2022/03/17 10:14:49;;;;;;;7.15;2.22;;;10.70;99.90;;;;;;4995026;28;20018;-73
2022/03/17 10:17:35;;;;;;;;;;;10.70;99.90;;;;;;5005174;28;20026;-72
2022/03/17 10:20:10;;;;;;;7.47;2.70;;;10.70;99.90;;;;;;4996551;28;19973;-72
2022/03/17 10:22:53;;;;;;;9.63;2.50;;;10.60;99.90;;;;;;4999091;28;20093;-72
2022/03/17 10:25:23;;;;;;;6.82;2.30;;;10.60;99.90;;;;;;4980473;28;20097;-72
2022/03/17 10:27:50;;;;;;;10.68;2.80;;;10.50;99.90;;;;;;4996515;28;20419;-72
2022/03/17 10:30:24;;;;;;;11.25;2.90;;;10.50;99.90;;;;;;5007840;28;20018;-72
2022/03/17 10:32:58;;;;;;;11.90;3.05;;;10.60;99.90;;;;;;5008004;28;20075;-72
2022/03/17 10:35:33;;;;;;;9.07;2.95;;;10.60;99.90;;;;;;5004810;28;20183;-72
2022/03/17 10:38:09;;;;;;;8.32;2.90;;;10.70;99.90;;;;;;5006400;28;20339;-71
2022/03/17 10:40:35;;;;;;;8.45;2.63;;;10.90;99.90;;;;;;4991740;28;20064;-72
2022/03/17 10:43:34;;;;;;;10.13;3.13;;;11.10;99.90;;;;;;5009116;28;20030;-72
2022/03/17 10:46:13;;;;;;;11.52;2.67;;;11.40;99.90;;;;;;4955624;28;20038;-72
2022/03/17 10:49:01;;;;;;;5.93;2.50;;;11.50;99.90;;;;;;5004241;28;20046;-71
2022/03/17 10:51:38;;;;;;;13.60;3.20;;;11.50;99.90;;;;;;5004771;28;20116;-72
2022/03/17 10:54:24;;;;;;;7.07;2.60;;;11.50;99.90;;;;;;4999606;28;20117;-72
2022/03/17 10:57:04;;;;;;;12.80;2.95;;;11.60;99.90;;;;;;5007489;28;20030;-70
2022/03/17 10:59:44;;;;;;;8.27;2.13;;;11.80;99.90;;;;;;4989629;28;20033;-70
2022/03/17 11:02:21;;;;;;;9.82;1.92;;;11.80;99.90;;;;;;5010034;28;20064;-71
2022/03/17 11:04:47;;;;;;;12.27;2.47;;;11.90;99.90;;;;;;5009490;28;20034;-71
2022/03/17 11:07:14;;;;;;;10.55;2.13;;;11.90;99.90;;;;;;5012526;28;20121;-72
2022/03/17 11:09:42;;;;;;;8.30;2.15;;;12.00;99.90;;;;;;5012851;28;20064;-72
2022/03/17 11:12:12;;;;;;;8.95;2.10;;;11.90;99.90;;;;;;5013122;28;20026;-72
2022/03/17 11:14:42;;;;;;;7.28;1.80;;;11.90;99.90;;;;;;5010903;28;20128;-72
2022/03/17 11:17:12;;;;;;;10.68;2.15;;;12.00;99.90;;;;;;5012136;28;20406;-72
2022/03/17 11:19:42;;;;;;;8.80;2.10;;;12.00;99.90;;;;;;4994292;28;20044;-72
2022/03/17 11:22:10;;;;;;;9.43;2.17;;;12.10;99.90;;;;;;4993793;28;20351;-72
2022/03/17 11:24:37;;;;;;;8.48;1.85;;;12.10;99.90;;;;;;5010687;28;20109;-72
2022/03/17 11:27:13;;;;;;;9.73;2.05;;;12.20;99.90;;;;;;5011549;28;20022;-72
2022/03/17 11:29:47;;;;;;;8.93;2.03;;;12.20;99.90;;;;;;5010429;28;20022;-72
2022/03/17 11:32:47;;;;;;;9.10;2.00;;;12.20;99.90;;;;;;5010966;28;20057;-72
2022/03/17 11:35:19;;;;;;;8.60;1.70;;;12.30;99.90;;;;;;5011631;28;20074;-72
2022/03/17 11:37:45;;;;;;;11.90;2.15;;;12.30;99.90;;;;;;5011317;28;20427;-72
2022/03/17 11:40:16;;;;;;;7.30;1.95;;;12.40;99.90;;;;;;5004831;28;20029;-72
2022/03/17 11:42:52;;;;;;;6.85;1.63;;;12.40;99.90;;;;;;5010133;28;20018;-72
2022/03/17 11:45:18;;;;;;;11.98;2.25;;;12.40;99.90;;;;;;5011137;28;20113;-72
2022/03/17 11:48:11;;;;;;;9.45;1.58;;;12.50;99.90;;;;;;5011600;28;20117;-72
2022/03/17 11:50:40;;;;;;;7.97;1.63;;;12.50;99.90;;;;;;5008229;28;20048;-72
2022/03/17 11:53:19;;;;;;;10.07;1.70;;;12.60;99.90;;;;;;4994686;28;20022;-72
2022/03/17 11:55:45;;;;;;;8.23;1.77;;;12.60;99.90;;;;;;5000792;28;20270;-72
2022/03/17 11:58:49;;;;;;;11.02;1.90;;;12.60;99.90;;;;;;5012070;28;20478;-72
2022/03/17 12:01:39;;;;;;;11.02;1.70;;;12.50;99.90;;;;;;5008918;28;20038;-71
2022/03/17 12:04:06;;;;;;;9.00;1.63;;;12.40;99.90;;;;;;4994044;28;20026;-71
2022/03/17 12:06:32;;;;;;;9.77;1.67;;;12.40;99.90;;;;;;5011878;28;20453;-72
2022/03/17 12:09:04;;;;;;;10.82;1.90;;;12.40;99.90;;;;;;5012001;28;20034;-71
2022/03/17 12:11:42;;;;;;;10.88;2.08;;;12.50;99.90;;;;;;4993592;28;20040;-72
2022/03/17 12:14:13;;;;;;;6.93;1.38;;;12.50;99.90;;;;;;5011845;28;20041;-72
2022/03/17 12:17:03;;;;;;;7.53;1.58;;;12.50;99.90;;;;;;4994348;28;20033;-71
2022/03/17 12:19:30;;;;;;;6.55;1.50;;;12.50;99.90;;;;;;5012701;28;20390;-73
2022/03/17 12:22:01;;;;;;;11.95;1.50;;;12.40;99.90;;;;;;4994424;28;20067;-71
2022/03/17 12:24:49;;;;;;;7.68;1.35;;;12.40;99.90;;;;;;5012690;28;20037;-73
2022/03/17 12:27:17;;;;;;;8.27;2.05;;;12.60;99.90;;;;;;4995090;28;20026;-72
2022/03/17 12:29:44;;;;;;;5.93;1.20;;;12.60;99.90;;;;;;5013957;28;20116;-73
2022/03/17 12:32:15;;;;;;;8.63;1.23;;;12.60;96.60;;;;;;4993132;28;20408;-72
2022/03/17 12:34:47;;;;;;;9.10;1.40;;;12.60;96.50;;;;;;5011971;28;20126;-72
2022/03/17 12:37:14;;;;;;;7.60;1.20;;;12.60;96.70;;;;;;4990605;28;20060;-72
2022/03/17 12:39:40;;;;;;;8.82;1.48;;;12.70;96.20;;;;;;4991477;28;20025;-72
2022/03/17 12:42:37;;;;;;;7.22;1.02;;;12.70;95.70;;;;;;5007675;28;20034;-73
2022/03/17 12:45:05;;;;;;;6.68;1.17;;;12.70;94.10;;;;;;5006678;28;20485;-72
2022/03/17 12:47:36;;;;;;;8.63;1.40;;;12.70;93.90;;;;;;5002966;28;20030;-72
2022/03/17 12:50:08;;;;;;;6.80;1.30;;;12.70;93.60;;;;;;4995800;28;20030;-71
2022/03/17 12:52:37;;;;;;;4.32;1.23;;;12.70;93.80;;;;;;4973707;28;20176;-73
2022/03/17 12:55:05;;;;;;;5.63;0.75;;;12.80;92.70;;;;;;4980527;28;20560;-72
2022/03/17 12:57:33;;;;;;;3.72;1.25;;;12.90;90.00;;;;;;5004461;28;20034;-72
2022/03/17 12:59:59;;;;;;;4.95;1.30;;;12.90;87.30;;;;;;5005827;28;20060;-71
2022/03/17 13:02:26;;;;;;;6.95;1.30;;;13.00;87.90;;;;;;5004619;28;20093;-72
2022/03/17 13:04:57;;;;;;;6.95;1.20;;;13.10;86.00;;;;;;4976234;28;20342;-72